Time;durP1;ratioP1;P1;durP2;ratioP2;P2;SDS_P1;SDS_P2;PMS_P1;PMS_P2;Temp;Humidity;BMP_temperature;BMP_pressure;BME280_temperature;BME280_humidity;BME280_pressure;Samples;Min_cycle;Max_cycle;Signal;HPM_P1;HPM_P2
2021/12/04 00:00:23;;;;;;;0.30;0.20;;;2.20;99.90;;;;;;5074863;28;20584;-87
2021/12/04 00:02:50;;;;;;;0.30;0.30;;;2.20;99.90;;;;;;5078288;28;20460;-86
2021/12/04 00:05:19;;;;;;;0.30;0.30;;;2.10;99.90;;;;;;5081430;28;20447;-87
2021/12/04 00:07:46;;;;;;;0.30;0.20;;;2.30;99.90;;;;;;5074601;28;20995;-87
2021/12/04 00:10:17;;;;;;;0.30;0.20;;;2.30;99.90;;;;;;5074562;28;20469;-87
2021/12/04 00:12:45;;;;;;;0.30;0.20;;;2.30;99.90;;;;;;5074714;28;20440;-86
2021/12/04 00:15:12;;;;;;;0.30;0.20;;;2.30;99.90;;;;;;5074642;28;20445;-87
2021/12/04 00:17:39;;;;;;;0.30;0.30;;;2.30;99.90;;;;;;5074154;28;20479;-87
2021/12/04 00:20:07;;;;;;;0.30;0.20;;;2.30;99.90;;;;;;5074159;28;20987;-87
2021/12/04 00:22:34;;;;;;;0.30;0.30;;;2.20;99.90;;;;;;5074370;28;20448;-87
2021/12/04 00:25:02;;;;;;;0.30;0.30;;;2.30;99.90;;;;;;5074461;28;20445;-87
2021/12/04 00:27:29;;;;;;;0.30;0.30;;;2.30;99.90;;;;;;5073847;28;20503;-87
2021/12/04 00:29:58;;;;;;;0.30;0.30;;;2.30;99.90;;;;;;5074269;28;20999;-87
2021/12/04 00:32:29;;;;;;;0.30;0.20;;;2.30;99.90;;;;;;5074233;28;20453;-80
2021/12/04 00:35:06;;;;;;;0.30;0.20;;;2.30;99.90;;;;;;5073892;28;20531;-79
2021/12/04 00:49:04;;;;;;;0.30;0.30;;;2.40;99.90;;;;;;5035370;28;20453;-81
2021/12/04 00:49:12;;;;;;;0.30;0.30;;;2.40;99.90;;;;;;5073498;28;20846;-86
2021/12/04 00:51:41;;;;;;;0.30;0.20;;;2.40;99.90;;;;;;5073512;28;20968;-86
2021/12/04 00:54:10;;;;;;;0.30;0.30;;;2.40;99.90;;;;;;5074135;28;20453;-86
2021/12/04 00:56:37;;;;;;;0.30;0.30;;;2.40;99.90;;;;;;5073681;28;20514;-86
2021/12/04 00:59:05;;;;;;;0.30;0.30;;;2.40;99.90;;;;;;5073733;28;20449;-87
2021/12/04 01:01:33;;;;;;;0.30;0.20;;;2.40;99.90;;;;;;5073790;28;20472;-86
2021/12/04 01:04:00;;;;;;;0.30;0.30;;;2.50;99.90;;;;;;5073818;28;20444;-86
2021/12/04 01:06:27;;;;;;;0.67;0.50;;;2.50;99.90;;;;;;5073808;28;20452;-86
2021/12/04 01:08:53;;;;;;;0.30;0.20;;;2.60;99.90;;;;;;5073542;28;20483;-80
2021/12/04 01:11:20;;;;;;;0.30;0.30;;;2.60;99.90;;;;;;5073345;28;20543;-80
2021/12/04 01:13:47;;;;;;;0.43;0.40;;;2.60;99.90;;;;;;5073419;28;20456;-85
2021/12/04 01:16:14;;;;;;;0.30;0.30;;;2.50;99.90;;;;;;5073010;28;20491;-84
2021/12/04 01:18:44;;;;;;;0.30;0.30;;;2.50;99.90;;;;;;5073346;28;20931;-85
2021/12/04 01:21:11;;;;;;;0.30;0.30;;;2.40;99.90;;;;;;5073416;28;20521;-85
2021/12/04 01:23:38;;;;;;;0.50;0.50;;;2.40;99.90;;;;;;5073479;28;20872;-85
2021/12/04 01:26:05;;;;;;;0.57;0.57;;;2.20;99.90;;;;;;5073405;28;20813;-85
2021/12/04 01:28:32;;;;;;;0.30;0.30;;;2.10;99.90;;;;;;5073446;28;20480;-86
2021/12/04 01:30:59;;;;;;;0.30;0.30;;;2.00;99.90;;;;;;5073556;28;20841;-87
2021/12/04 01:33:26;;;;;;;0.30;0.30;;;2.00;99.90;;;;;;5073515;28;20449;-87
2021/12/04 01:35:54;;;;;;;0.30;0.30;;;1.90;99.90;;;;;;5073490;28;20459;-87
2021/12/04 01:38:21;;;;;;;0.53;0.53;;;1.80;99.90;;;;;;5074631;28;20441;-87
2021/12/04 01:40:47;;;;;;;0.30;0.30;;;1.80;99.90;;;;;;5077506;28;20838;-87
2021/12/04 01:43:14;;;;;;;0.30;0.30;;;1.80;99.90;;;;;;5077425;28;20440;-87
2021/12/04 01:45:41;;;;;;;0.30;0.30;;;1.80;99.90;;;;;;5077403;28;20441;-87
2021/12/04 01:48:08;;;;;;;0.30;0.30;;;1.80;99.90;;;;;;5077241;28;20451;-86
2021/12/04 01:50:36;;;;;;;0.40;0.40;;;1.70;99.90;;;;;;5077099;28;20472;-86
2021/12/04 01:53:04;;;;;;;0.40;0.40;;;1.70;99.90;;;;;;5077185;28;20451;-86
2021/12/04 01:55:34;;;;;;;0.50;0.50;;;1.70;99.90;;;;;;5077837;28;20441;-86
2021/12/04 01:58:01;;;;;;;0.30;0.30;;;1.60;99.90;;;;;;5076827;28;20934;-86
2021/12/04 02:00:29;;;;;;;0.30;0.30;;;1.60;99.90;;;;;;5077050;28;20469;-86
2021/12/04 02:02:56;;;;;;;0.30;0.20;;;1.70;99.90;;;;;;5076885;28;20460;-86
2021/12/04 02:05:23;;;;;;;0.30;0.30;;;1.70;99.90;;;;;;5076887;28;20818;-86
2021/12/04 02:07:49;;;;;;;0.30;0.20;;;1.70;99.90;;;;;;5076512;28;20918;-86
2021/12/04 02:10:17;;;;;;;0.30;0.30;;;1.70;99.90;;;;;;5076738;28;20476;-86
2021/12/04 02:12:44;;;;;;;0.43;0.43;;;1.70;99.90;;;;;;5076641;28;20423;-86
2021/12/04 02:15:13;;;;;;;0.30;0.30;;;1.70;99.90;;;;;;5076569;28;20459;-86
2021/12/04 02:17:40;;;;;;;0.30;0.30;;;1.80;99.90;;;;;;5077486;28;20480;-87
2021/12/04 02:20:15;;;;;;;0.30;0.30;;;1.80;99.90;;;;;;5086307;28;20457;-87
2021/12/04 02:22:42;;;;;;;0.30;0.30;;;1.90;99.90;;;;;;5085201;28;20443;-87
2021/12/04 02:25:10;;;;;;;0.30;0.30;;;1.90;99.90;;;;;;5076650;28;20449;-87
2021/12/04 02:27:37;;;;;;;0.30;0.30;;;1.90;99.90;;;;;;5076760;28;20445;-86
2021/12/04 02:30:05;;;;;;;0.30;0.20;;;1.90;99.90;;;;;;5076429;28;20488;-86
2021/12/04 02:32:32;;;;;;;0.30;0.30;;;1.90;99.90;;;;;;5076504;28;20452;-86
2021/12/04 02:34:59;;;;;;;0.50;0.50;;;1.90;99.90;;;;;;5076353;28;20483;-80
2021/12/04 02:37:27;;;;;;;0.97;0.50;;;2.00;99.90;;;;;;5076060;28;20445;-79
2021/12/04 02:39:58;;;;;;;0.30;0.20;;;2.00;99.90;;;;;;5075970;28;20467;-79
2021/12/04 02:42:29;;;;;;;0.40;0.40;;;2.00;99.90;;;;;;5076227;28;20528;-86
2021/12/04 02:44:56;;;;;;;0.30;0.30;;;2.10;99.90;;;;;;5075793;28;20434;-85
2021/12/04 02:47:23;;;;;;;0.30;0.30;;;2.00;99.90;;;;;;5076083;28;20451;-85
2021/12/04 02:49:50;;;;;;;0.30;0.30;;;2.00;99.90;;;;;;5075086;28;21031;-85
2021/12/04 02:52:19;;;;;;;0.30;0.30;;;2.00;99.90;;;;;;5076013;28;20452;-85
2021/12/04 02:54:47;;;;;;;0.30;0.20;;;1.90;99.90;;;;;;5075868;28;20445;-85
2021/12/04 02:57:16;;;;;;;0.70;0.70;;;2.00;99.90;;;;;;5075818;28;20846;-84
2021/12/04 02:59:45;;;;;;;0.30;0.30;;;2.10;99.90;;;;;;5076359;28;20821;-84
2021/12/04 03:02:17;;;;;;;0.30;0.30;;;2.10;99.90;;;;;;5075739;28;20445;-85
2021/12/04 03:04:44;;;;;;;0.30;0.20;;;2.10;99.90;;;;;;5075417;28;20935;-85
2021/12/04 03:07:11;;;;;;;0.30;0.30;;;2.10;99.90;;;;;;5075946;28;20452;-85
2021/12/04 03:09:38;;;;;;;0.30;0.30;;;2.10;99.90;;;;;;5075191;28;20481;-86
2021/12/04 03:12:07;;;;;;;0.30;0.30;;;2.10;99.90;;;;;;5075547;28;20830;-85
2021/12/04 03:14:35;;;;;;;0.30;0.20;;;2.20;99.90;;;;;;5075697;28;20440;-85
2021/12/04 03:17:02;;;;;;;0.30;0.20;;;2.10;99.90;;;;;;5075244;28;20476;-85
2021/12/04 03:19:29;;;;;;;0.40;0.30;;;2.10;99.90;;;;;;5075346;28;20449;-85
2021/12/04 03:21:56;;;;;;;0.30;0.30;;;2.10;99.90;;;;;;5075397;28;20452;-85
2021/12/04 03:24:24;;;;;;;0.30;0.30;;;2.10;99.90;;;;;;5077005;28;20453;-85
2021/12/04 03:26:52;;;;;;;0.30;0.30;;;2.10;99.90;;;;;;5075281;28;20535;-85
2021/12/04 03:29:23;;;;;;;0.50;0.50;;;2.20;99.90;;;;;;5074714;28;20484;-85
2021/12/04 03:40:38;;;;;;;0.30;0.20;;;2.20;99.90;;;;;;5074928;28;20950;-85
2021/12/04 03:43:07;;;;;;;0.30;0.30;;;2.20;99.90;;;;;;5074994;28;20520;-85
2021/12/04 03:45:37;;;;;;;0.30;0.20;;;2.30;99.90;;;;;;5074858;28;20468;-85
2021/12/04 03:48:08;;;;;;;0.30;0.30;;;2.30;99.90;;;;;;5074827;28;20465;-85
2021/12/04 03:50:35;;;;;;;0.30;0.30;;;2.30;99.90;;;;;;5074656;28;20504;-86
2021/12/04 03:53:03;;;;;;;0.30;0.27;;;2.30;99.90;;;;;;5074809;28;20436;-86
2021/12/04 03:55:30;;;;;;;0.37;0.37;;;2.30;99.90;;;;;;5074423;28;20448;-86
2021/12/04 03:57:56;;;;;;;0.30;0.20;;;2.20;99.90;;;;;;5074708;28;20441;-85
2021/12/04 04:00:28;;;;;;;0.30;0.20;;;2.20;99.90;;;;;;5074070;28;20837;-85
2021/12/04 04:02:56;;;;;;;0.30;0.30;;;2.30;99.90;;;;;;5074524;28;20801;-86
2021/12/04 04:05:23;;;;;;;0.30;0.30;;;2.20;99.90;;;;;;5074538;28;20433;-85
2021/12/04 04:07:50;;;;;;;0.30;0.30;;;2.20;99.90;;;;;;5074263;28;20453;-86
2021/12/04 04:10:16;;;;;;;0.30;0.30;;;2.30;99.90;;;;;;5074327;28;20495;-86
2021/12/04 04:12:43;;;;;;;0.30;0.20;;;2.30;99.90;;;;;;5074322;28;20448;-85
2021/12/04 04:15:10;;;;;;;0.30;0.20;;;2.30;99.90;;;;;;5074283;28;20939;-85
2021/12/04 04:17:42;;;;;;;0.30;0.20;;;2.30;99.90;;;;;;5073811;28;20847;-85
2021/12/04 04:20:12;;;;;;;0.30;0.30;;;2.30;99.90;;;;;;5074129;28;20469;-85
2021/12/04 04:22:39;;;;;;;0.30;0.30;;;2.30;99.90;;;;;;5074141;28;20833;-85
2021/12/04 04:25:07;;;;;;;0.30;0.30;;;2.30;99.90;;;;;;5074288;28;20801;-85
2021/12/04 04:27:34;;;;;;;0.30;0.20;;;2.40;99.90;;;;;;5073844;28;20440;-85
2021/12/04 04:30:00;;;;;;;0.30;0.20;;;2.40;99.90;;;;;;5073987;28;20485;-85
2021/12/04 04:32:28;;;;;;;0.30;0.20;;;2.40;99.90;;;;;;5073915;28;20448;-85
2021/12/04 04:34:56;;;;;;;0.30;0.20;;;2.40;99.90;;;;;;5073952;28;20788;-85
2021/12/04 04:37:32;;;;;;;0.30;0.30;;;2.40;99.90;;;;;;5073613;28;20449;-84
2021/12/04 04:59:35;;;;;;;0.30;0.30;;;2.60;99.90;;;;;;5073646;28;20425;-83
2021/12/04 05:02:25;;;;;;;0.30;0.30;;;2.60;99.90;;;;;;5074390;28;20514;-83
2021/12/04 05:10:50;;;;;;;0.30;0.20;;;2.60;99.90;;;;;;5072676;28;20483;-82
2021/12/04 05:13:18;;;;;;;0.30;0.20;;;2.70;99.90;;;;;;5073306;28;20457;-83
2021/12/04 05:15:56;;;;;;;0.30;0.30;;;2.80;99.90;;;;;;5073443;28;20543;-83
2021/12/04 05:18:32;;;;;;;0.30;0.20;;;2.70;99.90;;;;;;5073034;28;20480;-83
2021/12/04 05:21:04;;;;;;;0.30;0.20;;;2.80;99.90;;;;;;5073379;28;20473;-83
2021/12/04 05:23:33;;;;;;;0.30;0.20;;;2.90;99.90;;;;;;5073475;28;20500;-80
2021/12/04 05:26:02;;;;;;;0.30;0.20;;;2.90;99.90;;;;;;5073261;28;20449;-79
2021/12/04 05:28:29;;;;;;;0.30;0.20;;;2.90;99.90;;;;;;5073201;28;20444;-79
2021/12/04 05:30:57;;;;;;;0.30;0.20;;;2.90;99.90;;;;;;5073492;28;20697;-79
2021/12/04 05:33:23;;;;;;;0.30;0.20;;;2.90;99.90;;;;;;5073711;28;20456;-80
2021/12/04 05:35:51;;;;;;;0.30;0.30;;;2.90;99.90;;;;;;5073231;28;20456;-80
2021/12/04 05:38:19;;;;;;;0.30;0.30;;;2.90;99.90;;;;;;5072880;28;20452;-80
2021/12/04 05:40:47;;;;;;;0.30;0.20;;;2.90;99.90;;;;;;5072740;28;20461;-80
2021/12/04 05:43:18;;;;;;;0.30;0.20;;;2.90;99.90;;;;;;5072805;28;20451;-80
2021/12/04 05:45:48;;;;;;;0.30;0.20;;;2.90;99.90;;;;;;5073209;28;20437;-79
2021/12/04 05:48:18;;;;;;;0.30;0.30;;;3.00;99.90;;;;;;5073379;28;20491;-79
2021/12/04 05:51:14;;;;;;;0.30;0.20;;;3.00;99.90;;;;;;5072598;28;20489;-79
2021/12/04 05:53:54;;;;;;;0.30;0.20;;;3.00;99.90;;;;;;5073072;28;20526;-79
2021/12/04 05:56:21;;;;;;;0.30;0.30;;;3.10;99.90;;;;;;5072994;28;20433;-79
2021/12/04 05:58:50;;;;;;;0.30;0.20;;;3.10;99.90;;;;;;5073558;28;20444;-79
2021/12/04 06:01:17;;;;;;;0.30;0.30;;;3.10;99.90;;;;;;5072595;28;20976;-79
2021/12/04 06:03:44;;;;;;;0.30;0.30;;;3.10;99.90;;;;;;5072946;28;20459;-79
2021/12/04 06:06:10;;;;;;;0.30;0.30;;;3.10;99.90;;;;;;5072690;28;20924;-79
2021/12/04 06:08:37;;;;;;;0.30;0.30;;;3.20;99.90;;;;;;5072935;28;20456;-79
2021/12/04 06:11:04;;;;;;;0.30;0.20;;;3.20;99.90;;;;;;5072684;28;20511;-78
2021/12/04 06:13:31;;;;;;;0.30;0.20;;;3.20;99.90;;;;;;5072850;28;20452;-79
2021/12/04 06:15:59;;;;;;;0.30;0.20;;;3.20;99.90;;;;;;5072859;28;20448;-79
2021/12/04 06:18:26;;;;;;;0.30;0.20;;;3.30;99.90;;;;;;5072778;28;20471;-79
2021/12/04 06:23:38;;;;;;;0.30;0.20;;;3.30;99.90;;;;;;5072870;28;20447;-79
2021/12/04 06:26:06;;;;;;;0.30;0.30;;;3.30;99.90;;;;;;5076050;28;20966;-79
2021/12/04 06:28:33;;;;;;;0.30;0.20;;;3.30;99.90;;;;;;5075952;28;20979;-79
2021/12/04 06:31:02;;;;;;;0.30;0.20;;;3.30;99.90;;;;;;5076075;28;20504;-79
2021/12/04 06:33:29;;;;;;;0.30;0.20;;;3.30;99.90;;;;;;5076155;28;20459;-79
2021/12/04 06:35:56;;;;;;;0.30;0.20;;;3.30;99.90;;;;;;5076565;28;20479;-79
2021/12/04 06:38:23;;;;;;;0.30;0.20;;;3.40;99.90;;;;;;5076133;28;20444;-79
2021/12/04 06:40:50;;;;;;;0.30;0.27;;;3.40;99.90;;;;;;5075648;28;20976;-79
2021/12/04 06:43:18;;;;;;;0.30;0.30;;;3.50;99.90;;;;;;5076042;28;20459;-79
2021/12/04 06:45:50;;;;;;;0.30;0.20;;;3.50;99.90;;;;;;5075990;28;20453;-79
2021/12/04 06:48:21;;;;;;;0.30;0.20;;;3.50;99.90;;;;;;5076216;28;20503;-79
2021/12/04 06:50:50;;;;;;;0.30;0.20;;;3.50;99.90;;;;;;5075977;28;20991;-79
2021/12/04 06:53:24;;;;;;;0.30;0.20;;;3.60;99.90;;;;;;5075816;28;20969;-79
2021/12/04 06:55:53;;;;;;;0.30;0.20;;;3.50;99.90;;;;;;5075837;28;20441;-79
2021/12/04 06:58:21;;;;;;;0.30;0.30;;;3.50;99.90;;;;;;5075734;28;20496;-79
2021/12/04 07:00:49;;;;;;;0.30;0.30;;;3.50;99.90;;;;;;5075645;28;20472;-79
2021/12/04 07:03:18;;;;;;;0.30;0.30;;;3.60;99.90;;;;;;5075346;28;20451;-79
2021/12/04 07:05:45;;;;;;;0.30;0.30;;;3.60;99.90;;;;;;5076172;28;20468;-79
2021/12/04 07:08:11;;;;;;;0.30;0.30;;;3.60;99.90;;;;;;5075557;28;20452;-79
2021/12/04 07:10:38;;;;;;;0.30;0.30;;;3.60;99.90;;;;;;5075375;28;20477;-79
2021/12/04 07:13:05;;;;;;;0.30;0.30;;;3.60;99.90;;;;;;5075617;28;20448;-79
2021/12/04 07:15:33;;;;;;;0.30;0.20;;;3.60;99.90;;;;;;5075446;28;20441;-79
2021/12/04 07:18:00;;;;;;;0.30;0.20;;;3.60;99.90;;;;;;5074969;28;20485;-79
2021/12/04 07:20:30;;;;;;;0.30;0.30;;;3.70;99.90;;;;;;5075221;28;20469;-79
2021/12/04 07:22:57;;;;;;;0.30;0.20;;;3.70;99.90;;;;;;5075292;28;20440;-79
2021/12/04 07:25:24;;;;;;;0.30;0.20;;;3.70;99.90;;;;;;5075235;28;20502;-79
2021/12/04 07:27:51;;;;;;;0.30;0.20;;;3.80;99.90;;;;;;5074872;28;20944;-79
2021/12/04 07:30:18;;;;;;;0.30;0.20;;;3.80;99.90;;;;;;5074949;28;20476;-79
2021/12/04 07:32:45;;;;;;;0.30;0.30;;;3.80;99.90;;;;;;5075046;28;20449;-79
2021/12/04 07:35:13;;;;;;;0.30;0.30;;;3.90;99.90;;;;;;5074986;28;20451;-79
2021/12/04 07:37:41;;;;;;;0.30;0.20;;;3.90;99.90;;;;;;5074981;28;20448;-79
2021/12/04 07:40:09;;;;;;;0.30;0.27;;;3.90;99.90;;;;;;5074835;28;20465;-79
2021/12/04 07:42:36;;;;;;;0.30;0.20;;;3.90;99.90;;;;;;5074935;28;20445;-79
2021/12/04 07:45:03;;;;;;;0.30;0.20;;;3.90;99.90;;;;;;5074860;28;20458;-79
2021/12/04 07:47:30;;;;;;;0.30;0.30;;;4.00;99.90;;;;;;5074793;28;20445;-79
2021/12/04 07:49:57;;;;;;;0.30;0.20;;;4.00;99.90;;;;;;5074610;28;20491;-79
2021/12/04 07:52:24;;;;;;;0.30;0.20;;;4.10;99.90;;;;;;5074733;28;20812;-79
2021/12/04 07:54:52;;;;;;;0.30;0.20;;;4.10;99.90;;;;;;5074670;28;20848;-79
2021/12/04 07:57:20;;;;;;;0.30;0.20;;;4.10;99.90;;;;;;5074208;28;20973;-79
2021/12/04 07:59:47;;;;;;;0.30;0.30;;;4.10;99.90;;;;;;5074563;28;20556;-79
2021/12/04 08:02:13;;;;;;;0.30;0.30;;;4.20;99.90;;;;;;5074233;28;20916;-79
2021/12/04 08:04:40;;;;;;;0.30;0.20;;;4.20;99.90;;;;;;5074465;28;20433;-79
2021/12/04 08:07:07;;;;;;;0.30;0.30;;;4.20;99.90;;;;;;5074122;28;20936;-79
2021/12/04 08:09:34;;;;;;;0.30;0.20;;;4.20;99.90;;;;;;5073987;28;20429;-79
2021/12/04 08:12:02;;;;;;;0.30;0.20;;;4.20;99.90;;;;;;5074099;28;21002;-80
2021/12/04 08:14:29;;;;;;;0.30;0.30;;;4.20;99.90;;;;;;5074327;28;20425;-79
2021/12/04 08:16:55;;;;;;;0.30;0.20;;;4.30;99.90;;;;;;5073916;28;20492;-79
2021/12/04 08:19:22;;;;;;;0.30;0.30;;;4.30;99.90;;;;;;5074131;28;20452;-79
2021/12/04 08:21:49;;;;;;;0.30;0.30;;;4.40;99.90;;;;;;5074117;28;20433;-78
2021/12/04 08:24:16;;;;;;;0.30;0.20;;;4.40;99.90;;;;;;5074101;28;20436;-78
2021/12/04 08:26:44;;;;;;;0.30;0.20;;;4.40;99.90;;;;;;5074045;28;20433;-78
2021/12/04 08:29:12;;;;;;;0.30;0.20;;;4.40;99.90;;;;;;5073979;28;20468;-78
2021/12/04 08:31:39;;;;;;;0.30;0.30;;;4.40;99.90;;;;;;5073491;28;21007;-78
2021/12/04 08:34:06;;;;;;;0.40;0.30;;;4.40;99.90;;;;;;5073920;28;20437;-78
2021/12/04 08:36:33;;;;;;;0.30;0.20;;;4.50;99.90;;;;;;5073631;28;20453;-78
2021/12/04 08:39:00;;;;;;;0.30;0.20;;;4.50;99.90;;;;;;5073860;28;20437;-77
2021/12/04 08:41:27;;;;;;;0.30;0.27;;;4.60;99.90;;;;;;5073476;28;20457;-78
2021/12/04 08:43:54;;;;;;;0.30;0.20;;;4.60;99.90;;;;;;5073817;28;20429;-78
2021/12/04 08:46:23;;;;;;;0.30;0.20;;;4.60;99.90;;;;;;5073537;28;20453;-78
2021/12/04 08:48:51;;;;;;;0.30;0.20;;;4.60;99.90;;;;;;5073520;28;20463;-78
2021/12/04 08:51:21;;;;;;;0.30;0.20;;;4.70;99.90;;;;;;5073199;28;20995;-78
2021/12/04 08:53:48;;;;;;;0.30;0.30;;;4.70;99.90;;;;;;5073319;28;20963;-78
2021/12/04 08:56:15;;;;;;;0.60;0.60;;;4.80;99.90;;;;;;5073627;28;20430;-79
2021/12/04 08:58:42;;;;;;;0.30;0.20;;;4.70;99.90;;;;;;5073532;28;20437;-79
2021/12/04 09:01:13;;;;;;;0.30;0.30;;;4.80;99.90;;;;;;5073429;28;20472;-78
2021/12/04 09:03:46;;;;;;;0.30;0.30;;;4.80;99.90;;;;;;5073554;28;20436;-79
2021/12/04 09:06:13;;;;;;;0.30;0.30;;;4.80;99.90;;;;;;5073219;28;20909;-79
2021/12/04 09:08:40;;;;;;;0.30;0.20;;;4.80;99.90;;;;;;5073446;28;20433;-79
2021/12/04 09:11:15;;;;;;;0.30;0.20;;;4.80;99.90;;;;;;5073139;28;20942;-79
2021/12/04 09:13:44;;;;;;;0.30;0.20;;;4.90;99.90;;;;;;5073392;28;20437;-79
2021/12/04 09:16:11;;;;;;;0.30;0.20;;;5.00;99.90;;;;;;5073159;28;20460;-79
2021/12/04 09:18:38;;;;;;;0.30;0.20;;;5.00;99.90;;;;;;5073349;28;20440;-79
2021/12/04 09:21:06;;;;;;;0.30;0.20;;;5.10;99.90;;;;;;5072992;28;20460;-80
2021/12/04 09:23:36;;;;;;;0.30;0.30;;;5.10;99.90;;;;;;5073766;28;20453;-79
2021/12/04 09:26:04;;;;;;;0.30;0.20;;;5.10;99.90;;;;;;5073320;28;20429;-78
2021/12/04 09:28:42;;;;;;;0.30;0.20;;;5.10;99.90;;;;;;5072969;28;20426;-78
2021/12/04 09:31:37;;;;;;;0.30;0.20;;;5.20;99.90;;;;;;5073142;28;20488;-79
2021/12/04 09:34:34;;;;;;;0.30;0.20;;;5.20;99.90;;;;;;5073247;28;20433;-80
2021/12/04 09:59:48;;;;;;;0.30;0.20;;;5.70;99.90;;;;;;5073904;28;20467;-78
2021/12/04 10:02:23;;;;;;;0.30;0.20;;;5.90;99.90;;;;;;5076779;28;20462;-79
2021/12/04 10:19:04;;;;;;;0.30;0.20;;;6.40;99.90;;;;;;5076306;28;20444;-79
2021/12/04 10:21:54;;;;;;;0.30;0.20;;;6.40;99.90;;;;;;5076350;28;20465;-79
2021/12/04 10:24:41;;;;;;;0.30;0.27;;;6.40;99.90;;;;;;5076436;28;20428;-79
2021/12/04 10:32:56;;;;;;;0.30;0.20;;;6.40;99.90;;;;;;5076169;28;20781;-79
2021/12/04 10:35:24;;;;;;;0.30;0.20;;;6.40;99.90;;;;;;5076163;28;20456;-79
2021/12/04 10:37:54;;;;;;;0.30;0.20;;;6.50;99.90;;;;;;5076159;28;20429;-79
2021/12/04 10:40:24;;;;;;;0.30;0.20;;;6.50;99.90;;;;;;5076096;28;20560;-80
2021/12/04 10:42:57;;;;;;;0.30;0.20;;;6.60;99.90;;;;;;5076079;28;20434;-80
2021/12/04 10:45:32;;;;;;;0.30;0.20;;;6.60;99.90;;;;;;5076123;28;20429;-80
2021/12/04 10:48:00;;;;;;;0.60;0.60;;;6.70;99.90;;;;;;5075979;28;20445;-79
2021/12/04 10:50:39;;;;;;;0.30;0.20;;;6.80;99.90;;;;;;5075893;28;20500;-80
2021/12/04 10:53:06;;;;;;;0.30;0.20;;;6.90;99.90;;;;;;5075960;28;20512;-79
2021/12/04 10:55:44;;;;;;;0.30;0.20;;;7.00;99.90;;;;;;5075864;28;20435;-79
2021/12/04 10:58:43;;;;;;;0.30;0.20;;;7.00;99.90;;;;;;5075768;28;20441;-79
2021/12/04 11:01:31;;;;;;;0.40;0.40;;;7.10;99.90;;;;;;5075370;28;20487;-79
2021/12/04 11:04:05;;;;;;;0.30;0.30;;;7.10;99.90;;;;;;5075325;28;20830;-79
2021/12/04 11:34:54;;;;;;;0.30;0.20;;;7.20;99.90;;;;;;5074794;28;20487;-80
2021/12/04 11:37:48;;;;;;;0.30;0.20;;;7.20;99.90;;;;;;5074942;28;20558;-80
2021/12/04 11:40:28;;;;;;;0.30;0.30;;;7.20;99.90;;;;;;5074908;28;20474;-80
2021/12/04 11:43:01;;;;;;;0.30;0.20;;;7.10;99.90;;;;;;5074923;28;20429;-80
2021/12/04 11:45:45;;;;;;;0.30;0.20;;;7.10;99.90;;;;;;5075370;28;20437;-81
2021/12/04 11:48:14;;;;;;;0.30;0.20;;;7.20;99.90;;;;;;5074919;28;20873;-83
2021/12/04 11:50:43;;;;;;;0.30;0.20;;;7.20;99.90;;;;;;5074649;28;20816;-81
2021/12/04 11:53:16;;;;;;;0.30;0.20;;;7.30;99.90;;;;;;5075433;28;20780;-80
2021/12/04 11:55:44;;;;;;;0.30;0.20;;;7.40;99.90;;;;;;5074444;28;20444;-81
2021/12/04 11:58:20;;;;;;;1.57;0.57;;;7.40;99.90;;;;;;5074657;28;20437;-81
2021/12/04 12:00:48;;;;;;;0.30;0.20;;;7.50;99.90;;;;;;5074518;28;20472;-81
2021/12/04 12:03:19;;;;;;;0.30;0.20;;;7.50;99.90;;;;;;5074515;28;20425;-81
2021/12/04 12:05:50;;;;;;;0.50;0.30;;;7.50;99.90;;;;;;5074363;28;20436;-81
2021/12/04 12:08:26;;;;;;;0.30;0.20;;;7.50;99.90;;;;;;5074384;28;20468;-81
2021/12/04 12:10:55;;;;;;;0.30;0.20;;;7.50;99.90;;;;;;5073880;28;20473;-81
2021/12/04 12:13:29;;;;;;;0.30;0.20;;;7.50;99.90;;;;;;5074343;28;20425;-82
2021/12/04 12:16:03;;;;;;;0.30;0.30;;;7.50;99.90;;;;;;5074317;28;20464;-81
2021/12/04 12:18:31;;;;;;;0.30;0.20;;;7.60;99.90;;;;;;5074281;28;20429;-81
2021/12/04 12:21:11;;;;;;;0.30;0.20;;;7.60;99.90;;;;;;5074123;28;20467;-82
2021/12/04 12:26:49;;;;;;;0.30;0.20;;;7.70;99.90;;;;;;5074062;28;20400;-81
2021/12/04 12:32:23;;;;;;;0.30;0.20;;;7.70;99.90;;;;;;5073969;28;20459;-81
2021/12/04 12:37:36;;;;;;;0.30;0.20;;;7.60;99.90;;;;;;5073685;28;20409;-81
2021/12/04 12:40:08;;;;;;;0.30;0.30;;;7.60;99.90;;;;;;5074332;28;20476;-81
2021/12/04 12:42:38;;;;;;;0.30;0.20;;;7.70;99.90;;;;;;5074057;28;20429;-81
2021/12/04 12:45:19;;;;;;;0.30;0.30;;;7.70;99.90;;;;;;5073785;28;20437;-81
2021/12/04 12:47:52;;;;;;;0.30;0.20;;;7.70;99.90;;;;;;5073704;28;20429;-81
2021/12/04 12:50:34;;;;;;;0.30;0.20;;;7.80;99.90;;;;;;5073153;28;20980;-80
2021/12/04 12:53:04;;;;;;;0.30;0.20;;;7.70;99.90;;;;;;5073439;28;20464;-81
2021/12/04 12:55:35;;;;;;;0.30;0.20;;;7.70;99.90;;;;;;5073659;28;20436;-81
2021/12/04 12:58:18;;;;;;;0.30;0.30;;;7.70;99.90;;;;;;5073669;28;20848;-81
2021/12/04 13:12:02;;;;;;;0.30;0.30;;;7.70;99.90;;;;;;5073116;28;20542;-81
2021/12/04 13:14:32;;;;;;;0.30;0.20;;;7.70;99.90;;;;;;5073640;28;20441;-81
2021/12/04 13:17:04;;;;;;;0.30;0.20;;;7.70;99.90;;;;;;5073624;28;20503;-82
2021/12/04 13:19:32;;;;;;;0.30;0.20;;;7.70;99.90;;;;;;5073331;28;20440;-81
2021/12/04 13:22:04;;;;;;;0.30;0.20;;;7.70;99.90;;;;;;5073400;28;20437;-81
2021/12/04 13:24:35;;;;;;;0.30;0.20;;;7.60;99.90;;;;;;5073359;28;20429;-81
2021/12/04 13:29:38;;;;;;;0.30;0.20;;;7.60;99.90;;;;;;5073331;28;20492;-81
2021/12/04 13:32:06;;;;;;;0.30;0.30;;;7.60;99.90;;;;;;5072829;28;20518;-80
2021/12/04 13:34:33;;;;;;;0.30;0.20;;;7.70;99.90;;;;;;5076557;28;20432;-81
2021/12/04 13:37:02;;;;;;;0.30;0.20;;;7.60;99.90;;;;;;5077075;28;20908;-81
2021/12/04 13:39:29;;;;;;;0.30;0.20;;;7.60;99.90;;;;;;5077246;28;20429;-81
2021/12/04 13:41:56;;;;;;;0.30;0.20;;;7.60;99.90;;;;;;5077034;28;20429;-81
2021/12/04 13:44:26;;;;;;;0.30;0.30;;;7.50;99.90;;;;;;5077024;28;20423;-84
2021/12/04 13:46:56;;;;;;;0.87;0.87;;;7.50;99.90;;;;;;5077297;28;20429;-84
2021/12/04 13:49:32;;;;;;;0.30;0.30;;;7.50;99.90;;;;;;5077748;28;20848;-84
2021/12/04 13:52:03;;;;;;;0.30;0.27;;;7.40;99.90;;;;;;5077045;28;20460;-83
2021/12/04 13:54:32;;;;;;;0.30;0.20;;;7.40;99.90;;;;;;5077126;28;20799;-84
2021/12/04 13:56:59;;;;;;;0.30;0.30;;;7.40;99.90;;;;;;5077040;28;20523;-83
2021/12/04 13:59:28;;;;;;;0.30;0.30;;;7.40;99.90;;;;;;5077869;28;20778;-82
2021/12/04 14:01:56;;;;;;;0.30;0.30;;;7.40;99.90;;;;;;5076956;28;20439;-82
2021/12/04 14:04:23;;;;;;;0.30;0.20;;;7.30;99.90;;;;;;5076983;28;20433;-83
2021/12/04 14:06:52;;;;;;;0.30;0.20;;;7.30;99.90;;;;;;5076939;28;20433;-84
2021/12/04 14:09:22;;;;;;;0.30;0.30;;;7.30;99.90;;;;;;5076800;28;20781;-83
2021/12/04 14:11:48;;;;;;;0.30;0.20;;;7.30;99.90;;;;;;5076708;28;20468;-82
2021/12/04 14:14:17;;;;;;;0.30;0.30;;;7.30;99.90;;;;;;5076381;28;20931;-83
2021/12/04 14:16:47;;;;;;;0.30;0.20;;;7.40;99.90;;;;;;5076965;28;21022;-83
2021/12/04 14:19:16;;;;;;;0.30;0.20;;;7.30;99.90;;;;;;5076663;28;20797;-83
2021/12/04 14:21:43;;;;;;;0.40;0.40;;;7.40;99.90;;;;;;5076571;28;20828;-83
2021/12/04 14:24:09;;;;;;;0.30;0.30;;;7.40;99.90;;;;;;5076166;28;20504;-82
2021/12/04 14:26:37;;;;;;;0.60;0.60;;;7.40;99.90;;;;;;5076161;28;20436;-82
2021/12/04 14:29:04;;;;;;;0.30;0.20;;;7.30;99.90;;;;;;5076460;28;20436;-82
2021/12/04 14:31:32;;;;;;;0.30;0.30;;;7.40;99.90;;;;;;5076273;28;20471;-82
2021/12/04 14:33:59;;;;;;;0.30;0.30;;;7.40;99.90;;;;;;5076386;28;20433;-83
2021/12/04 14:36:26;;;;;;;0.30;0.20;;;7.40;99.90;;;;;;5076294;28;20413;-83
2021/12/04 14:38:53;;;;;;;0.30;0.30;;;7.40;99.90;;;;;;5076403;28;20429;-82
2021/12/04 14:41:21;;;;;;;0.30;0.20;;;7.40;99.90;;;;;;5075860;28;20984;-83
2021/12/04 14:43:49;;;;;;;0.30;0.20;;;7.30;99.90;;;;;;5076221;28;20440;-83
2021/12/04 14:46:18;;;;;;;0.30;0.30;;;7.30;99.90;;;;;;5075491;28;20444;-82
2021/12/04 14:48:48;;;;;;;0.30;0.20;;;7.30;99.90;;;;;;5076188;28;20444;-82
2021/12/04 14:51:19;;;;;;;0.30;0.20;;;7.30;99.90;;;;;;5075939;28;20461;-82
2021/12/04 14:53:48;;;;;;;0.30;0.20;;;7.30;99.90;;;;;;5076001;28;20477;-82
2021/12/04 14:56:19;;;;;;;0.30;0.27;;;7.20;99.90;;;;;;5075960;28;20968;-82
2021/12/04 14:58:45;;;;;;;0.30;0.30;;;7.20;99.90;;;;;;5075955;28;20467;-82
2021/12/04 15:01:16;;;;;;;0.30;0.20;;;7.20;99.90;;;;;;5075652;28;20820;-82
2021/12/04 15:03:46;;;;;;;0.30;0.30;;;7.20;99.90;;;;;;5075852;28;20425;-82
2021/12/04 15:06:16;;;;;;;0.30;0.20;;;7.30;99.90;;;;;;5077348;28;20427;-82
2021/12/04 15:08:47;;;;;;;0.30;0.30;;;7.20;99.90;;;;;;5077440;28;20437;-82
2021/12/04 15:11:16;;;;;;;0.30;0.30;;;7.20;99.90;;;;;;5076578;28;20461;-82
2021/12/04 15:13:51;;;;;;;0.30;0.20;;;7.20;99.90;;;;;;5075650;28;20473;-83
2021/12/04 15:16:29;;;;;;;0.30;0.20;;;7.10;99.90;;;;;;5075412;28;20494;-82
2021/12/04 15:19:07;;;;;;;0.30;0.20;;;7.10;99.90;;;;;;5075526;28;20433;-82
2021/12/04 15:21:39;;;;;;;0.30;0.30;;;7.10;99.90;;;;;;5075459;28;20959;-83
2021/12/04 15:24:06;;;;;;;0.30;0.20;;;7.10;99.90;;;;;;5075392;28;20429;-82
2021/12/04 15:26:33;;;;;;;0.30;0.20;;;7.10;99.90;;;;;;5075404;28;20442;-82
2021/12/04 15:29:00;;;;;;;0.30;0.20;;;7.10;99.90;;;;;;5075508;28;20437;-82